sensor_id;sensor_type;location;lat;lon;timestamp;pressure;altitude;pressure_sealevel;temperature;humidity
76637;BME280;65532;52.124;5.480;2024-01-06T00:00:37;100377.31;;;4.55;100.00
76637;BME280;65532;52.124;5.480;2024-01-06T00:03:04;100385.56;;;4.53;100.00
76637;BME280;65532;52.124;5.480;2024-01-06T00:05:30;100383.09;;;4.51;100.00
76637;BME280;65532;52.124;5.480;2024-01-06T00:07:57;100385.16;;;4.49;100.00
76637;BME280;65532;52.124;5.480;2024-01-06T00:10:23;100388.47;;;4.51;100.00
76637;BME280;65532;52.124;5.480;2024-01-06T00:12:50;100396.69;;;4.50;100.00
76637;BME280;65532;52.124;5.480;2024-01-06T00:15:16;100397.94;;;4.47;100.00
76637;BME280;65532;52.124;5.480;2024-01-06T00:17:43;100409.91;;;4.45;100.00
76637;BME280;65532;52.124;5.480;2024-01-06T00:20:10;100412.78;;;4.43;100.00
76637;BME280;65532;52.124;5.480;2024-01-06T00:22:37;100413.97;;;4.41;100.00
76637;BME280;65532;52.124;5.480;2024-01-06T00:25:03;100420.97;;;4.35;100.00
76637;BME280;65532;52.124;5.480;2024-01-06T00:27:30;100429.22;;;4.34;100.00
76637;BME280;65532;52.124;5.480;2024-01-06T00:29:56;100424.28;;;4.31;100.00
76637;BME280;65532;52.124;5.480;2024-01-06T00:32:23;100429.59;;;4.24;100.00
76637;BME280;65532;52.124;5.480;2024-01-06T00:34:50;100428.34;;;4.20;100.00
76637;BME280;65532;52.124;5.480;2024-01-06T00:37:16;100428.34;;;4.20;100.00
76637;BME280;65532;52.124;5.480;2024-01-06T00:39:43;100435.97;;;4.23;100.00
76637;BME280;65532;52.124;5.480;2024-01-06T00:42:09;100438.03;;;4.21;100.00
76637;BME280;65532;52.124;5.480;2024-01-06T00:44:36;100436.38;;;4.20;100.00
76637;BME280;65532;52.124;5.480;2024-01-06T00:47:03;100435.75;;;4.18;100.00
76637;BME280;65532;52.124;5.480;2024-01-06T00:49:29;100436.38;;;4.20;100.00
76637;BME280;65532;52.124;5.480;2024-01-06T00:51:56;100434.72;;;4.19;100.00
76637;BME280;65532;52.124;5.480;2024-01-06T00:54:23;100434.72;;;4.19;100.00
76637;BME280;65532;52.124;5.480;2024-01-06T00:56:49;100434.94;;;4.17;100.00
76637;BME280;65532;52.124;5.480;2024-01-06T00:59:16;100436.38;;;4.13;100.00
76637;BME280;65532;52.124;5.480;2024-01-06T01:01:42;100447.28;;;4.12;100.00
76637;BME280;65532;52.124;5.480;2024-01-06T01:04:09;100444.81;;;4.10;100.00
76637;BME280;65532;52.124;5.480;2024-01-06T01:06:37;100451.00;;;4.11;100.00
76637;BME280;65532;52.124;5.480;2024-01-06T01:09:03;100459.19;;;4.03;100.00
76637;BME280;65532;52.124;5.480;2024-01-06T01:11:30;100467.84;;;4.05;100.00
76637;BME280;65532;52.124;5.480;2024-01-06T01:13:57;100462.06;;;4.08;100.00
76637;BME280;65532;52.124;5.480;2024-01-06T01:16:24;100456.09;;;4.06;100.00
76637;BME280;65532;52.124;5.480;2024-01-06T01:18:50;100473.78;;;4.00;100.00
76637;BME280;65532;52.124;5.480;2024-01-06T01:21:17;100476.03;;;3.97;100.00
76637;BME280;65532;52.124;5.480;2024-01-06T01:23:44;100479.69;;;3.89;100.00
76637;BME280;65532;52.124;5.480;2024-01-06T01:26:10;100477.63;;;3.84;100.00
76637;BME280;65532;52.124;5.480;2024-01-06T01:28:37;100482.97;;;3.84;100.00
76637;BME280;65532;52.124;5.480;2024-01-06T01:31:03;100486.28;;;3.86;100.00
76637;BME280;65532;52.124;5.480;2024-01-06T01:33:30;100490.81;;;3.86;100.00
76637;BME280;65532;52.124;5.480;2024-01-06T01:35:57;100496.75;;;3.81;100.00
76637;BME280;65532;52.124;5.480;2024-01-06T01:38:27;100503.50;;;3.77;100.00
76637;BME280;65532;52.124;5.480;2024-01-06T01:40:53;100505.53;;;3.75;100.00
76637;BME280;65532;52.124;5.480;2024-01-06T01:43:20;100511.91;;;3.74;100.00
76637;BME280;65532;52.124;5.480;2024-01-06T01:45:50;100508.00;;;3.70;100.00
76637;BME280;65532;52.124;5.480;2024-01-06T01:48:19;100517.03;;;3.69;100.00
76637;BME280;65532;52.124;5.480;2024-01-06T01:50:47;100520.75;;;3.68;100.00
76637;BME280;65532;52.124;5.480;2024-01-06T01:53:13;100525.06;;;3.69;100.00
76637;BME280;65532;52.124;5.480;2024-01-06T01:55:41;100530.63;;;3.68;100.00
76637;BME280;65532;52.124;5.480;2024-01-06T01:58:10;100528.56;;;3.70;100.00
76637;BME280;65532;52.124;5.480;2024-01-06T02:00:37;100529.78;;;3.67;100.00
76637;BME280;65532;52.124;5.480;2024-01-06T02:03:05;100532.28;;;3.69;100.00
76637;BME280;65532;52.124;5.480;2024-01-06T02:05:32;100539.47;;;3.68;100.00
76637;BME280;65532;52.124;5.480;2024-01-06T02:07:58;100542.97;;;3.69;100.00
76637;BME280;65532;52.124;5.480;2024-01-06T02:10:25;100541.34;;;3.68;100.00
76637;BME280;65532;52.124;5.480;2024-01-06T02:12:52;100541.53;;;3.66;100.00
76637;BME280;65532;52.124;5.480;2024-01-06T02:15:19;100543.81;;;3.69;100.00
76637;BME280;65532;52.124;5.480;2024-01-06T02:17:45;100544.63;;;3.70;100.00
76637;BME280;65532;52.124;5.480;2024-01-06T02:20:13;100548.53;;;3.67;100.00
76637;BME280;65532;52.124;5.480;2024-01-06T02:22:40;100549.56;;;3.66;100.00
76637;BME280;65532;52.124;5.480;2024-01-06T02:25:07;100554.91;;;3.66;100.00
76637;BME280;65532;52.124;5.480;2024-01-06T02:27:39;100556.97;;;3.64;100.00
76637;BME280;65532;52.124;5.480;2024-01-06T02:30:06;100556.97;;;3.64;100.00
76637;BME280;65532;52.124;5.480;2024-01-06T02:32:33;100558.81;;;3.64;100.00
76637;BME280;65532;52.124;5.480;2024-01-06T02:35:00;100570.16;;;3.66;100.00
76637;BME280;65532;52.124;5.480;2024-01-06T02:37:27;100570.78;;;3.68;100.00
76637;BME280;65532;52.124;5.480;2024-01-06T02:39:53;100584.16;;;3.68;100.00
76637;BME280;65532;52.124;5.480;2024-01-06T02:42:20;100580.47;;;3.69;100.00
76637;BME280;65532;52.124;5.480;2024-01-06T02:44:47;100573.44;;;3.68;100.00
76637;BME280;65532;52.124;5.480;2024-01-06T02:47:13;100583.34;;;3.67;100.00
76637;BME280;65532;52.124;5.480;2024-01-06T02:49:40;100583.53;;;3.66;100.00
76637;BME280;65532;52.124;5.480;2024-01-06T02:52:06;100577.97;;;3.67;100.00
76637;BME280;65532;52.124;5.480;2024-01-06T02:54:33;100586.84;;;3.68;100.00
76637;BME280;65532;52.124;5.480;2024-01-06T02:57:00;100594.03;;;3.67;100.00
76637;BME280;65532;52.124;5.480;2024-01-06T02:59:26;100581.28;;;3.69;100.00
76637;BME280;65532;52.124;5.480;2024-01-06T03:01:53;100593.22;;;3.67;100.00
76637;BME280;65532;52.124;5.480;2024-01-06T03:04:19;100587.84;;;3.67;100.00
76637;BME280;65532;52.124;5.480;2024-01-06T03:06:46;100586.84;;;3.68;100.00
76637;BME280;65532;52.124;5.480;2024-01-06T03:09:18;100591.75;;;3.64;100.00
76637;BME280;65532;52.124;5.480;2024-01-06T03:11:45;100594.44;;;3.64;100.00
76637;BME280;65532;52.124;5.480;2024-01-06T03:14:12;100597.47;;;3.61;100.00
76637;BME280;65532;52.124;5.480;2024-01-06T03:16:38;100604.22;;;3.57;100.00
76637;BME280;65532;52.124;5.480;2024-01-06T03:19:05;100614.94;;;3.57;100.00
76637;BME280;65532;52.124;5.480;2024-01-06T03:21:32;100605.88;;;3.58;100.00
76637;BME280;65532;52.124;5.480;2024-01-06T03:23:59;100618.81;;;3.54;100.00
76637;BME280;65532;52.124;5.480;2024-01-06T03:26:26;100628.06;;;3.52;100.00
76637;BME280;65532;52.124;5.480;2024-01-06T03:28:54;100616.91;;;3.48;100.00
76637;BME280;65532;52.124;5.480;2024-01-06T03:31:20;100632.50;;;3.45;100.00
76637;BME280;65532;52.124;5.480;2024-01-06T03:33:48;100635.19;;;3.45;100.00
76637;BME280;65532;52.124;5.480;2024-01-06T03:36:15;100640.28;;;3.40;100.00
76637;BME280;65532;52.124;5.480;2024-01-06T03:38:43;100636.97;;;3.38;100.00
76637;BME280;65532;52.124;5.480;2024-01-06T03:41:10;100639.84;;;3.36;100.00
76637;BME280;65532;52.124;5.480;2024-01-06T03:43:36;100647.03;;;3.36;100.00
76637;BME280;65532;52.124;5.480;2024-01-06T03:46:03;100650.53;;;3.36;100.00
76637;BME280;65532;52.124;5.480;2024-01-06T03:48:29;100656.72;;;3.37;100.00
76637;BME280;65532;52.124;5.480;2024-01-06T03:50:56;100667.41;;;3.37;100.00
76637;BME280;65532;52.124;5.480;2024-01-06T03:53:23;100665.31;;;3.32;100.00
76637;BME280;65532;52.124;5.480;2024-01-06T03:55:52;100663.91;;;3.36;100.00
76637;BME280;65532;52.124;5.480;2024-01-06T03:58:19;100665.75;;;3.36;100.00
76637;BME280;65532;52.124;5.480;2024-01-06T04:00:45;100671.13;;;3.36;100.00
76637;BME280;65532;52.124;5.480;2024-01-06T04:03:12;100670.09;;;3.37;100.00
76637;BME280;65532;52.124;5.480;2024-01-06T04:05:38;100666.59;;;3.36;100.00
76637;BME280;65532;52.124;5.480;2024-01-06T04:08:05;100666.31;;;3.31;100.00
76637;BME280;65532;52.124;5.480;2024-01-06T04:10:32;100679.88;;;3.29;100.00
76637;BME280;65532;52.124;5.480;2024-01-06T04:12:58;100688.28;;;3.26;100.00
76637;BME280;65532;52.124;5.480;2024-01-06T04:15:25;100688.28;;;3.26;100.00
76637;BME280;65532;52.124;5.480;2024-01-06T04:17:51;100687.91;;;3.29;100.00
76637;BME280;65532;52.124;5.480;2024-01-06T04:20:19;100687.91;;;3.29;100.00
76637;BME280;65532;52.124;5.480;2024-01-06T04:22:45;100692.16;;;3.24;100.00
76637;BME280;65532;52.124;5.480;2024-01-06T04:25:12;100684.91;;;3.18;100.00
76637;BME280;65532;52.124;5.480;2024-01-06T04:27:38;100688.09;;;3.13;100.00
76637;BME280;65532;52.124;5.480;2024-01-06T04:30:05;100694.22;;;3.07;100.00
76637;BME280;65532;52.124;5.480;2024-01-06T04:32:32;100695.63;;;3.03;100.00
76637;BME280;65532;52.124;5.480;2024-01-06T04:34:58;100699.00;;;2.97;100.00
76637;BME280;65532;52.124;5.480;2024-01-06T04:37:25;100699.94;;;2.89;100.00
76637;BME280;65532;52.124;5.480;2024-01-06T04:39:52;100702.50;;;2.83;100.00
76637;BME280;65532;52.124;5.480;2024-01-06T04:42:18;100702.50;;;2.83;100.00
76637;BME280;65532;52.124;5.480;2024-01-06T04:44:46;100710.91;;;2.80;100.00
76637;BME280;65532;52.124;5.480;2024-01-06T04:47:12;100706.56;;;2.79;100.00
76637;BME280;65532;52.124;5.480;2024-01-06T04:49:39;100707.59;;;2.78;100.00
76637;BME280;65532;52.124;5.480;2024-01-06T04:52:05;100714.78;;;2.77;100.00
76637;BME280;65532;52.124;5.480;2024-01-06T04:54:32;100714.78;;;2.77;100.00
76637;BME280;65532;52.124;5.480;2024-01-06T04:56:59;100724.63;;;2.77;100.00
76637;BME280;65532;52.124;5.480;2024-01-06T04:59:25;100714.31;;;2.74;100.00
76637;BME280;65532;52.124;5.480;2024-01-06T05:01:52;100725.84;;;2.74;100.00
76637;BME280;65532;52.124;5.480;2024-01-06T05:04:19;100724.63;;;2.77;100.00
76637;BME280;65532;52.124;5.480;2024-01-06T05:06:46;100731.66;;;2.78;100.00
76637;BME280;65532;52.124;5.480;2024-01-06T05:09:12;100727.13;;;2.78;100.00
76637;BME280;65532;52.124;5.480;2024-01-06T05:11:39;100731.28;;;2.81;100.00
76637;BME280;65532;52.124;5.480;2024-01-06T05:14:05;100736.25;;;2.84;100.00
76637;BME280;65532;52.124;5.480;2024-01-06T05:16:32;100738.28;;;2.82;100.00
76637;BME280;65532;52.124;5.480;2024-01-06T05:18:58;100741.97;;;2.81;100.00
76637;BME280;65532;52.124;5.480;2024-01-06T05:21:25;100746.84;;;2.77;100.00
76637;BME280;65532;52.124;5.480;2024-01-06T05:23:52;100751.38;;;2.77;100.00
76637;BME280;65532;52.124;5.480;2024-01-06T05:26:18;100764.91;;;2.75;100.00
76637;BME280;65532;52.124;5.480;2024-01-06T05:28:45;100759.94;;;2.72;100.00
76637;BME280;65532;52.124;5.480;2024-01-06T05:31:11;100758.63;;;2.68;100.00
76637;BME280;65532;52.124;5.480;2024-01-06T05:33:38;100767.00;;;2.65;100.00
76637;BME280;65532;52.124;5.480;2024-01-06T05:36:05;100773.00;;;2.67;100.00
76637;BME280;65532;52.124;5.480;2024-01-06T05:38:31;100772.84;;;2.68;100.00
76637;BME280;65532;52.124;5.480;2024-01-06T05:40:58;100775.53;;;2.68;100.00
76637;BME280;65532;52.124;5.480;2024-01-06T05:43:24;100773.81;;;2.67;100.00
76637;BME280;65532;52.124;5.480;2024-01-06T05:45:51;100775.84;;;2.65;100.00
76637;BME280;65532;52.124;5.480;2024-01-06T05:48:17;100769.88;;;2.63;100.00
76637;BME280;65532;52.124;5.480;2024-01-06T05:50:44;100776.13;;;2.56;100.00
76637;BME280;65532;52.124;5.480;2024-01-06T05:53:11;100778.97;;;2.54;100.00
76637;BME280;65532;52.124;5.480;2024-01-06T05:55:40;100774.34;;;2.48;100.00
76637;BME280;65532;52.124;5.480;2024-01-06T05:58:07;100779.22;;;2.45;100.00
76637;BME280;65532;52.124;5.480;2024-01-06T06:00:33;100785.94;;;2.40;100.00
76637;BME280;65532;52.124;5.480;2024-01-06T06:03:00;100802.16;;;2.39;100.00
76637;BME280;65532;52.124;5.480;2024-01-06T06:05:26;100802.84;;;2.33;100.00
76637;BME280;65532;52.124;5.480;2024-01-06T06:07:53;100805.53;;;2.33;100.00
76637;BME280;65532;52.124;5.480;2024-01-06T06:10:20;100812.72;;;2.32;100.00
76637;BME280;65532;52.124;5.480;2024-01-06T06:12:47;100806.91;;;2.29;100.00
76637;BME280;65532;52.124;5.480;2024-01-06T06:15:14;100813.91;;;2.30;100.00
76637;BME280;65532;52.124;5.480;2024-01-06T06:17:40;100822.91;;;2.29;100.00
76637;BME280;65532;52.124;5.480;2024-01-06T06:20:07;100821.06;;;2.29;100.00
76637;BME280;65532;52.124;5.480;2024-01-06T06:22:34;100830.28;;;2.27;100.00
76637;BME280;65532;52.124;5.480;2024-01-06T06:25:00;100829.44;;;2.26;100.00
76637;BME280;65532;52.124;5.480;2024-01-06T06:27:27;100828.63;;;2.26;100.00
76637;BME280;65532;52.124;5.480;2024-01-06T06:29:54;100840.50;;;2.23;100.00
76637;BME280;65532;52.124;5.480;2024-01-06T06:32:22;100836.31;;;2.21;100.00
76637;BME280;65532;52.124;5.480;2024-01-06T06:34:49;100852.50;;;2.19;100.00
76637;BME280;65532;52.124;5.480;2024-01-06T06:37:15;100849.00;;;2.19;100.00
76637;BME280;65532;52.124;5.480;2024-01-06T06:39:42;100853.06;;;2.15;100.00
76637;BME280;65532;52.124;5.480;2024-01-06T06:42:11;100860.06;;;2.16;100.00
76637;BME280;65532;52.124;5.480;2024-01-06T06:44:38;100860.88;;;2.16;100.00
76637;BME280;65532;52.124;5.480;2024-01-06T06:47:04;100867.72;;;2.19;100.00
76637;BME280;65532;52.124;5.480;2024-01-06T06:49:30;100865.69;;;2.21;100.00
76637;BME280;65532;52.124;5.480;2024-01-06T06:51:57;100872.03;;;2.20;100.00
76637;BME280;65532;52.124;5.480;2024-01-06T06:54:24;100881.06;;;2.19;100.00
76637;BME280;65532;52.124;5.480;2024-01-06T06:56:50;100879.53;;;2.24;100.00
76637;BME280;65532;52.124;5.480;2024-01-06T06:59:17;100888.75;;;2.22;100.00
76637;BME280;65532;52.124;5.480;2024-01-06T07:01:43;100888.59;;;2.15;100.00
76637;BME280;65532;52.124;5.480;2024-01-06T07:04:10;100898.75;;;2.20;100.00
76637;BME280;65532;52.124;5.480;2024-01-06T07:06:36;100900.25;;;2.22;100.00
76637;BME280;65532;52.124;5.480;2024-01-06T07:09:03;100917.13;;;2.23;100.00
76637;BME280;65532;52.124;5.480;2024-01-06T07:11:31;100912.78;;;2.22;100.00
76637;BME280;65532;52.124;5.480;2024-01-06T07:13:57;100914.44;;;2.23;100.00
76637;BME280;65532;52.124;5.480;2024-01-06T07:16:24;100918.13;;;2.22;100.00
76637;BME280;65532;52.124;5.480;2024-01-06T07:18:51;100926.13;;;2.22;100.00
76637;BME280;65532;52.124;5.480;2024-01-06T07:21:17;100929.78;;;2.21;100.00
76637;BME280;65532;52.124;5.480;2024-01-06T07:23:44;100943.13;;;2.21;100.00
76637;BME280;65532;52.124;5.480;2024-01-06T07:26:11;100935.81;;;2.23;100.00
76637;BME280;65532;52.124;5.480;2024-01-06T07:28:37;100927.44;;;2.26;100.00
76637;BME280;65532;52.124;5.480;2024-01-06T07:31:04;100939.50;;;2.22;100.00
76637;BME280;65532;52.124;5.480;2024-01-06T07:33:31;100940.31;;;2.22;100.00
76637;BME280;65532;52.124;5.480;2024-01-06T07:35:58;100943.13;;;2.21;100.00
76637;BME280;65532;52.124;5.480;2024-01-06T07:38:25;100943.13;;;2.21;100.00
76637;BME280;65532;52.124;5.480;2024-01-06T07:40:51;100958.50;;;2.19;100.00
76637;BME280;65532;52.124;5.480;2024-01-06T07:43:18;100948.34;;;2.22;100.00
76637;BME280;65532;52.124;5.480;2024-01-06T07:45:44;100964.19;;;2.24;100.00
76637;BME280;65532;52.124;5.480;2024-01-06T07:48:11;100962.16;;;2.26;100.00
76637;BME280;65532;52.124;5.480;2024-01-06T07:50:37;100974.50;;;2.27;100.00
76637;BME280;65532;52.124;5.480;2024-01-06T07:53:04;100963.81;;;2.27;100.00
76637;BME280;65532;52.124;5.480;2024-01-06T07:55:31;100973.69;;;2.26;100.00
76637;BME280;65532;52.124;5.480;2024-01-06T07:57:57;100979.84;;;2.27;100.00
76637;BME280;65532;52.124;5.480;2024-01-06T08:00:24;100978.84;;;2.28;100.00
76637;BME280;65532;52.124;5.480;2024-01-06T08:02:51;100983.34;;;2.27;100.00
76637;BME280;65532;52.124;5.480;2024-01-06T08:05:17;100985.19;;;2.27;100.00
76637;BME280;65532;52.124;5.480;2024-01-06T08:07:44;100988.50;;;2.29;100.00
76637;BME280;65532;52.124;5.480;2024-01-06T08:10:10;100987.69;;;2.28;100.00
76637;BME280;65532;52.124;5.480;2024-01-06T08:12:37;100998.00;;;2.31;100.00
76637;BME280;65532;52.124;5.480;2024-01-06T08:15:04;101005.84;;;2.33;100.00
76637;BME280;65532;52.124;5.480;2024-01-06T08:17:31;101002.16;;;2.34;100.00
76637;BME280;65532;52.124;5.480;2024-01-06T08:19:57;100996.81;;;2.34;100.00
76637;BME280;65532;52.124;5.480;2024-01-06T08:22:24;101012.84;;;2.34;100.00
76637;BME280;65532;52.124;5.480;2024-01-06T08:24:51;101014.53;;;2.35;100.00
76637;BME280;65532;52.124;5.480;2024-01-06T08:27:17;101007.50;;;2.34;100.00
76637;BME280;65532;52.124;5.480;2024-01-06T08:29:44;101010.84;;;2.36;100.00
76637;BME280;65532;52.124;5.480;2024-01-06T08:32:10;101017.88;;;2.37;100.00
76637;BME280;65532;52.124;5.480;2024-01-06T08:34:37;101024.88;;;2.38;100.00
76637;BME280;65532;52.124;5.480;2024-01-06T08:37:04;101030.22;;;2.38;100.00
76637;BME280;65532;52.124;5.480;2024-01-06T08:39:31;101037.41;;;2.37;100.00
76637;BME280;65532;52.124;5.480;2024-01-06T08:41:58;101040.56;;;2.41;100.00
76637;BME280;65532;52.124;5.480;2024-01-06T08:44:27;101038.91;;;2.40;100.00
76637;BME280;65532;52.124;5.480;2024-01-06T08:46:54;101045.91;;;2.41;100.00
76637;BME280;65532;52.124;5.480;2024-01-06T08:49:21;101047.56;;;2.42;100.00
76637;BME280;65532;52.124;5.480;2024-01-06T08:51:48;101050.91;;;2.44;100.00
76637;BME280;65532;52.124;5.480;2024-01-06T08:54:14;101055.41;;;2.44;100.00
76637;BME280;65532;52.124;5.480;2024-01-06T08:56:42;101061.94;;;2.41;100.00
76637;BME280;65532;52.124;5.480;2024-01-06T08:59:08;101069.28;;;2.39;100.00
76637;BME280;65532;52.124;5.480;2024-01-06T09:01:35;101071.78;;;2.40;100.00
76637;BME280;65532;52.124;5.480;2024-01-06T09:04:03;101073.63;;;2.40;100.00
76637;BME280;65532;52.124;5.480;2024-01-06T09:06:30;101076.28;;;2.40;100.00
76637;BME280;65532;52.124;5.480;2024-01-06T09:08:57;101087.47;;;2.44;100.00
76637;BME280;65532;52.124;5.480;2024-01-06T09:11:24;101084.97;;;2.42;100.00
76637;BME280;65532;52.124;5.480;2024-01-06T09:13:50;101094.81;;;2.42;100.00
76637;BME280;65532;52.124;5.480;2024-01-06T09:16:19;101095.31;;;2.45;100.00
76637;BME280;65532;52.124;5.480;2024-01-06T09:18:46;101096.13;;;2.46;100.00
76637;BME280;65532;52.124;5.480;2024-01-06T09:21:12;101091.63;;;2.46;100.00
76637;BME280;65532;52.124;5.480;2024-01-06T09:23:39;101106.66;;;2.47;100.00
76637;BME280;65532;52.124;5.480;2024-01-06T09:26:06;101106.00;;;2.45;100.00
76637;BME280;65532;52.124;5.480;2024-01-06T09:28:33;101116.03;;;2.43;100.00
76637;BME280;65532;52.124;5.480;2024-01-06T09:30:59;101119.19;;;2.47;100.00
76637;BME280;65532;52.124;5.480;2024-01-06T09:33:26;101112.66;;;2.49;100.00
76637;BME280;65532;52.124;5.480;2024-01-06T09:35:53;101118.00;;;2.49;100.00
76637;BME280;65532;52.124;5.480;2024-01-06T09:38:19;101118.00;;;2.49;100.00
76637;BME280;65532;52.124;5.480;2024-01-06T09:40:48;101136.69;;;2.49;100.00
76637;BME280;65532;52.124;5.480;2024-01-06T09:43:15;101136.53;;;2.51;100.00
76637;BME280;65532;52.124;5.480;2024-01-06T09:45:42;101138.19;;;2.52;100.00
76637;BME280;65532;52.124;5.480;2024-01-06T09:48:12;101140.72;;;2.53;100.00
76637;BME280;65532;52.124;5.480;2024-01-06T09:50:41;101147.03;;;2.60;100.00
76637;BME280;65532;52.124;5.480;2024-01-06T09:53:10;101151.19;;;2.63;100.00
76637;BME280;65532;52.124;5.480;2024-01-06T09:55:37;101145.03;;;2.62;100.00
76637;BME280;65532;52.124;5.480;2024-01-06T09:58:05;101158.06;;;2.57;100.00
76637;BME280;65532;52.124;5.480;2024-01-06T10:00:35;101160.09;;;2.55;100.00
76637;BME280;65532;52.124;5.480;2024-01-06T10:03:02;101161.41;;;2.59;100.00
76637;BME280;65532;52.124;5.480;2024-01-06T10:05:29;101154.22;;;2.60;100.00
76637;BME280;65532;52.124;5.480;2024-01-06T10:07:57;101170.06;;;2.61;100.00
76637;BME280;65532;52.124;5.480;2024-01-06T10:10:23;101175.78;;;2.58;100.00
76637;BME280;65532;52.124;5.480;2024-01-06T10:12:53;101178.63;;;2.57;100.00
76637;BME280;65532;52.124;5.480;2024-01-06T10:15:20;101178.78;;;2.55;100.00
76637;BME280;65532;52.124;5.480;2024-01-06T10:17:47;101183.44;;;2.61;100.00
76637;BME280;65532;52.124;5.480;2024-01-06T10:20:14;101182.78;;;2.59;100.00
76637;BME280;65532;52.124;5.480;2024-01-06T10:22:42;101188.44;;;2.64;100.00
76637;BME280;65532;52.124;5.480;2024-01-06T10:25:10;101189.94;;;2.67;100.00
76637;BME280;65532;52.124;5.480;2024-01-06T10:27:38;101195.63;;;2.64;100.00
76637;BME280;65532;52.124;5.480;2024-01-06T10:30:09;101196.47;;;2.64;100.00
76637;BME280;65532;52.124;5.480;2024-01-06T10:32:36;101205.81;;;2.60;100.00
76637;BME280;65532;52.124;5.480;2024-01-06T10:35:04;101199.97;;;2.65;100.00
76637;BME280;65532;52.124;5.480;2024-01-06T10:37:32;101200.97;;;2.64;100.00
76637;BME280;65532;52.124;5.480;2024-01-06T10:40:25;101212.16;;;2.67;100.00
76637;BME280;65532;52.124;5.480;2024-01-06T10:42:52;101207.16;;;2.64;100.00
76637;BME280;65532;52.124;5.480;2024-01-06T10:45:19;101218.31;;;2.68;100.00
76637;BME280;65532;52.124;5.480;2024-01-06T10:47:46;101217.19;;;2.70;100.00
76637;BME280;65532;52.124;5.480;2024-01-06T10:50:14;101217.50;;;2.67;100.00
76637;BME280;65532;52.124;5.480;2024-01-06T10:52:43;101215.81;;;2.66;100.00
76637;BME280;65532;52.124;5.480;2024-01-06T10:55:10;101214.19;;;2.57;100.00
76637;BME280;65532;52.124;5.480;2024-01-06T10:57:38;101209.50;;;2.59;100.00
76637;BME280;65532;52.124;5.480;2024-01-06T11:00:05;101216.16;;;2.63;100.00
76637;BME280;65532;52.124;5.480;2024-01-06T11:02:32;101219.50;;;2.65;100.00
76637;BME280;65532;52.124;5.480;2024-01-06T11:05:00;101221.53;;;2.63;100.00
76637;BME280;65532;52.124;5.480;2024-01-06T11:07:27;101224.84;;;2.65;100.00
76637;BME280;65532;52.124;5.480;2024-01-06T11:10:02;101228.03;;;2.61;100.00
76637;BME280;65532;52.124;5.480;2024-01-06T11:12:31;101234.56;;;2.58;100.00
76637;BME280;65532;52.124;5.480;2024-01-06T11:14:59;101229.03;;;2.60;100.00
76637;BME280;65532;52.124;5.480;2024-01-06T11:17:54;101233.25;;;2.54;100.00
76637;BME280;65532;52.124;5.480;2024-01-06T11:20:25;101231.41;;;2.55;100.00
76637;BME280;65532;52.124;5.480;2024-01-06T11:22:53;101236.72;;;2.63;100.00
76637;BME280;65532;52.124;5.480;2024-01-06T11:25:21;101237.22;;;2.66;100.00
76637;BME280;65532;52.124;5.480;2024-01-06T11:27:48;101228.69;;;2.71;100.00
76637;BME280;65532;52.124;5.480;2024-01-06T11:30:24;101238.22;;;2.74;100.00
76637;BME280;65532;52.124;5.480;2024-01-06T11:32:52;101236.34;;;2.82;100.00
76637;BME280;65532;52.124;5.480;2024-01-06T11:35:21;101231.00;;;2.82;100.00
76637;BME280;65532;52.124;5.480;2024-01-06T11:42:49;101230.81;;;2.92;100.00
76637;BME280;65532;52.124;5.480;2024-01-06T11:45:24;101233.66;;;2.90;100.00
76637;BME280;65532;52.124;5.480;2024-01-06T11:47:54;101239.53;;;2.86;100.00
76637;BME280;65532;52.124;5.480;2024-01-06T11:50:22;101240.38;;;2.86;100.00
76637;BME280;65532;52.124;5.480;2024-01-06T11:52:49;101239.19;;;2.81;100.00
76637;BME280;65532;52.124;5.480;2024-01-06T11:55:18;101235.19;;;2.85;100.00
76637;BME280;65532;52.124;5.480;2024-01-06T11:57:48;101245.53;;;2.80;100.00
76637;BME280;65532;52.124;5.480;2024-01-06T12:00:16;101236.19;;;2.76;100.00
76637;BME280;65532;52.124;5.480;2024-01-06T12:02:44;101243.56;;;2.74;100.00
76637;BME280;65532;52.124;5.480;2024-01-06T12:05:15;101241.72;;;2.66;100.00
76637;BME280;65532;52.124;5.480;2024-01-06T12:07:42;101240.22;;;2.63;100.00
76637;BME280;65532;52.124;5.480;2024-01-06T12:10:09;101241.22;;;2.62;100.00
76637;BME280;65532;52.124;5.480;2024-01-06T12:12:35;101244.56;;;2.64;100.00
76637;BME280;65532;52.124;5.480;2024-01-06T12:15:02;101242.91;;;2.63;100.00
76637;BME280;65532;52.124;5.480;2024-01-06T12:17:30;101242.91;;;2.63;100.00
76637;BME280;65532;52.124;5.480;2024-01-06T12:19:57;101245.75;;;2.62;100.00
76637;BME280;65532;52.124;5.480;2024-01-06T12:22:26;101246.22;;;2.65;100.00
76637;BME280;65532;52.124;5.480;2024-01-06T12:24:52;101247.91;;;2.66;100.00
76637;BME280;65532;52.124;5.480;2024-01-06T12:27:19;101251.25;;;2.68;100.00
76637;BME280;65532;52.124;5.480;2024-01-06T12:29:48;101247.91;;;2.66;100.00
76637;BME280;65532;52.124;5.480;2024-01-06T12:32:14;101249.25;;;2.62;100.00
76637;BME280;65532;52.124;5.480;2024-01-06T12:34:41;101257.09;;;2.64;100.00
76637;BME280;65532;52.124;5.480;2024-01-06T12:37:07;101253.06;;;2.68;100.00
76637;BME280;65532;52.124;5.480;2024-01-06T12:39:34;101262.59;;;2.62;100.00
76637;BME280;65532;52.124;5.480;2024-01-06T12:42:01;101263.78;;;2.60;100.00
76637;BME280;65532;52.124;5.480;2024-01-06T12:44:28;101264.97;;;2.57;100.00
76637;BME280;65532;52.124;5.480;2024-01-06T12:46:55;101257.94;;;2.56;100.00
76637;BME280;65532;52.124;5.480;2024-01-06T12:49:21;101257.13;;;2.56;100.00
76637;BME280;65532;52.124;5.480;2024-01-06T12:51:48;101261.28;;;2.50;100.00
76637;BME280;65532;52.124;5.480;2024-01-06T12:54:15;101262.28;;;2.49;100.00